createdAt,value
2023-10-17T00:02:13.750Z,13.54
2023-10-17T00:04:45.756Z,13.58
2023-10-17T00:07:15.376Z,13.66
2023-10-17T00:09:44.536Z,13.57
2023-10-17T00:12:16.161Z,13.58
2023-10-17T00:14:47.943Z,13.51
2023-10-17T00:17:21.082Z,13.45
2023-10-17T00:19:52.771Z,13.32
2023-10-17T00:22:21.591Z,13.37
2023-10-17T00:24:50.777Z,13.31
2023-10-17T00:27:18.790Z,13.23
2023-10-17T00:29:47.934Z,13.11
2023-10-17T00:32:17.258Z,12.95
2023-10-17T00:34:48.687Z,12.94
2023-10-17T00:37:17.288Z,12.85
2023-10-17T00:39:45.934Z,12.92
2023-10-17T00:42:30.017Z,12.69
2023-10-17T00:44:58.704Z,12.81
2023-10-17T00:47:28.803Z,12.74
2023-10-17T00:49:58.545Z,12.75
2023-10-17T00:52:31.564Z,12.63
2023-10-17T00:55:01.444Z,12.53
2023-10-17T00:57:30.206Z,12.51
2023-10-17T01:00:00.055Z,12.35
2023-10-17T01:02:32.349Z,12.45
2023-10-17T01:05:01.602Z,12.31
2023-10-17T01:07:33.152Z,12.46
2023-10-17T01:10:29.161Z,12.34
2023-10-17T01:13:05.650Z,12.46
2023-10-17T01:15:35.268Z,12.65
2023-10-17T01:18:07.156Z,12.73
2023-10-17T01:20:37.981Z,12.65
2023-10-17T01:23:06.767Z,12.66
2023-10-17T01:25:43.857Z,12.55
2023-10-17T01:28:12.563Z,12.65
2023-10-17T01:30:43.374Z,12.68
2023-10-17T01:33:12.468Z,12.83
2023-10-17T01:35:46.607Z,12.91
2023-10-17T01:38:15.804Z,12.79
2023-10-17T01:40:44.687Z,12.91
2023-10-17T01:43:13.378Z,13.01
2023-10-17T01:45:44.813Z,12.99
2023-10-17T01:48:14.994Z,12.98
2023-10-17T01:50:43.662Z,12.80
2023-10-17T01:53:15.794Z,12.95
2023-10-17T01:55:54.698Z,12.82
2023-10-17T01:58:24.429Z,12.91
2023-10-17T02:00:57.278Z,12.98
2023-10-17T02:03:25.884Z,12.85
2023-10-17T02:05:54.942Z,12.65
2023-10-17T02:08:25.040Z,12.69
2023-10-17T02:10:53.658Z,12.49
2023-10-17T02:13:23.721Z,12.50
2023-10-17T02:15:53.371Z,12.46
2023-10-17T02:18:22.001Z,12.40
2023-10-17T02:20:53.904Z,12.55
2023-10-17T02:23:22.603Z,12.38
2023-10-17T02:25:52.843Z,12.43
2023-10-17T02:28:22.724Z,12.41
2023-10-17T02:30:51.340Z,12.36
2023-10-17T02:33:20.122Z,12.50
2023-10-17T02:36:06.707Z,12.54
2023-10-17T02:38:34.967Z,12.44
2023-10-17T02:41:03.922Z,12.39
2023-10-17T02:43:32.647Z,12.46
2023-10-17T02:46:06.741Z,12.47
2023-10-17T02:48:56.073Z,12.50
2023-10-17T02:51:25.237Z,12.51
2023-10-17T02:53:58.888Z,12.52
2023-10-17T02:56:28.945Z,12.47
2023-10-17T02:59:20.115Z,12.54
2023-10-17T03:01:55.596Z,12.33
2023-10-17T03:04:28.245Z,12.45
2023-10-17T03:06:57.009Z,12.28
2023-10-17T03:09:25.433Z,12.30
2023-10-17T03:11:58.902Z,12.15
2023-10-17T03:14:46.327Z,12.32
2023-10-17T03:17:17.361Z,12.10
2023-10-17T03:19:46.020Z,12.22
2023-10-17T03:22:29.947Z,12.04
2023-10-17T03:25:04.990Z,12.03
2023-10-17T03:27:50.997Z,11.96
2023-10-17T03:30:23.672Z,12.02
2023-10-17T03:33:00.858Z,11.91
2023-10-17T03:35:32.233Z,11.97
2023-10-17T03:38:03.598Z,12.10
2023-10-17T03:40:36.633Z,12.06
2023-10-17T03:43:24.969Z,12.07
2023-10-17T03:45:59.549Z,11.82
2023-10-17T03:48:31.559Z,11.71
2023-10-17T03:51:01.534Z,11.88
2023-10-17T03:53:33.068Z,11.89
2023-10-17T03:56:05.043Z,11.78
2023-10-17T03:58:34.001Z,11.78
2023-10-17T04:01:13.834Z,11.70
2023-10-17T04:03:43.907Z,11.67
2023-10-17T04:06:12.679Z,11.43
2023-10-17T04:09:07.284Z,11.39
2023-10-17T04:11:39.359Z,11.57
2023-10-17T04:14:12.480Z,11.53
2023-10-17T04:16:46.660Z,11.36
2023-10-17T04:19:22.781Z,11.39
2023-10-17T04:22:22.003Z,11.29
2023-10-17T04:24:51.719Z,11.26
2023-10-17T04:27:20.390Z,11.20
2023-10-17T04:29:58.948Z,11.28
2023-10-17T04:32:31.592Z,11.20
2023-10-17T04:35:00.464Z,11.26
2023-10-17T04:37:35.169Z,11.13
2023-10-17T04:40:22.554Z,11.25
2023-10-17T04:42:54.945Z,11.16
2023-10-17T04:45:26.281Z,11.08
2023-10-17T04:48:13.975Z,11.27
2023-10-17T04:50:58.649Z,11.22
2023-10-17T04:53:37.987Z,11.27
2023-10-17T04:56:16.420Z,11.23
2023-10-17T04:59:05.450Z,11.04
2023-10-17T05:01:38.525Z,11.24
2023-10-17T05:04:35.963Z,11.35
2023-10-17T05:07:04.896Z,11.17
2023-10-17T05:09:37.802Z,11.26
2023-10-17T05:12:24.882Z,11.27
2023-10-17T05:15:12.032Z,11.32
2023-10-17T05:17:59.157Z,11.29
2023-10-17T05:20:46.326Z,11.24
2023-10-17T05:23:33.396Z,11.39
2023-10-17T05:26:27.891Z,11.21
2023-10-17T05:29:14.675Z,11.40
2023-10-17T05:32:02.164Z,11.24
2023-10-17T05:34:53.418Z,11.27
2023-10-17T05:37:40.902Z,11.37
2023-10-17T05:40:28.114Z,11.43
2023-10-17T05:43:15.190Z,11.46
2023-10-17T05:46:02.103Z,11.51
2023-10-17T05:48:48.945Z,11.42
2023-10-17T05:51:36.187Z,11.20
2023-10-17T05:57:12.785Z,11.29
2023-10-17T05:59:59.461Z,11.23
2023-10-17T06:02:46.881Z,11.22
2023-10-17T06:05:34.101Z,11.20
2023-10-17T06:08:21.070Z,11.04
2023-10-17T06:11:28.546Z,10.82
2023-10-17T06:14:14.860Z,10.77
2023-10-17T06:16:54.278Z,10.77
2023-10-17T06:19:23.322Z,10.61
2023-10-17T06:22:04.259Z,10.62
2023-10-17T06:24:48.742Z,10.71
2023-10-17T06:27:45.035Z,10.72
2023-10-17T06:30:52.743Z,10.63
2023-10-17T06:33:21.672Z,10.76
2023-10-17T06:35:57.465Z,10.74
2023-10-17T06:38:30.323Z,10.56
2023-10-17T06:41:17.232Z,10.65
2023-10-17T06:43:57.435Z,10.59
2023-10-17T06:46:33.613Z,10.49
2023-10-17T06:49:11.023Z,10.56
2023-10-17T06:51:39.827Z,10.55
2023-10-17T06:54:09.556Z,10.55
2023-10-17T06:56:47.382Z,10.46
2023-10-17T06:59:27.073Z,10.49
2023-10-17T07:02:31.450Z,10.41
2023-10-17T07:05:03.787Z,10.32
2023-10-17T07:07:42.495Z,10.33
2023-10-17T07:10:27.254Z,10.34
2023-10-17T07:13:34.517Z,10.31
2023-10-17T07:16:23.536Z,10.14
2023-10-17T07:18:54.081Z,10.23
2023-10-17T07:21:26.491Z,10.26
2023-10-17T07:23:57.221Z,10.29
2023-10-17T07:26:31.744Z,10.28
2023-10-17T07:29:00.404Z,10.25
2023-10-17T07:31:31.170Z,10.23
2023-10-17T07:34:18.753Z,10.29
2023-10-17T07:36:50.083Z,10.28
2023-10-17T07:39:32.377Z,10.19
2023-10-17T07:42:00.623Z,10.07
2023-10-17T07:44:30.234Z,10.28
2023-10-17T07:47:09.338Z,10.22
2023-10-17T07:49:44.966Z,10.04
2023-10-17T07:52:20.387Z,10.20
2023-10-17T07:55:02.428Z,10.08
2023-10-17T07:57:38.942Z,9.77
2023-10-17T08:00:28.138Z,9.66
2023-10-17T08:03:19.948Z,9.42
2023-10-17T08:06:07.816Z,9.29
2023-10-17T08:08:46.115Z,9.05
2023-10-17T08:11:30.201Z,8.95
2023-10-17T08:14:05.395Z,8.83
2023-10-17T08:16:35.339Z,8.93
2023-10-17T08:19:16.321Z,8.69
2023-10-17T08:21:52.937Z,8.61
2023-10-17T08:24:40.220Z,8.40
2023-10-17T08:27:16.010Z,8.50
2023-10-17T08:30:05.421Z,8.64
2023-10-17T08:32:53.912Z,8.52
2023-10-17T08:35:22.895Z,8.69
2023-10-17T08:37:55.065Z,8.45
2023-10-17T08:40:32.417Z,8.35
2023-10-17T08:43:09.426Z,8.63
2023-10-17T08:45:41.460Z,8.86
2023-10-17T08:48:13.826Z,8.86
2023-10-17T08:50:42.995Z,8.66
2023-10-17T08:53:23.770Z,8.40
2023-10-17T08:55:53.179Z,8.10
2023-10-17T08:58:33.381Z,8.10
2023-10-17T09:01:14.761Z,7.85
2023-10-17T09:03:49.182Z,7.79
2023-10-17T09:06:17.954Z,8.07
2023-10-17T09:08:55.461Z,8.16
2023-10-17T09:11:43.837Z,7.91
2023-10-17T09:14:30.286Z,7.67
2023-10-17T09:17:19.666Z,7.44
2023-10-17T09:19:48.785Z,7.35
2023-10-17T09:22:18.203Z,7.01
2023-10-17T09:24:52.729Z,7.10
2023-10-17T09:27:22.312Z,6.89
2023-10-17T09:29:58.344Z,6.87
2023-10-17T09:32:38.655Z,6.59
2023-10-17T09:35:19.292Z,6.52
2023-10-17T09:37:53.906Z,6.41
2023-10-17T09:40:32.868Z,6.57
2023-10-17T09:43:03.333Z,6.83
2023-10-17T09:45:36.894Z,6.89
2023-10-17T09:48:08.555Z,6.42
2023-10-17T09:50:39.949Z,6.46
2023-10-17T09:53:22.339Z,6.53
2023-10-17T09:55:58.148Z,6.48
2023-10-17T09:58:40.352Z,6.35
2023-10-17T10:01:22.776Z,6.45
2023-10-17T10:03:54.973Z,6.40
2023-10-17T10:06:33.854Z,6.55
2023-10-17T10:09:09.153Z,6.34
2023-10-17T10:11:52.850Z,6.55
2023-10-17T10:14:30.662Z,6.21
2023-10-17T10:17:05.948Z,5.82
2023-10-17T10:19:58.291Z,5.84
2023-10-17T10:22:28.127Z,5.72
2023-10-17T10:25:07.713Z,4.81
2023-10-17T10:27:36.430Z,4.88
2023-10-17T10:30:46.398Z,4.84
2023-10-17T10:33:16.262Z,4.73
2023-10-17T10:35:48.433Z,4.63
2023-10-17T10:38:17.164Z,4.52
2023-10-17T10:40:47.581Z,4.72
2023-10-17T10:43:21.314Z,4.51
2023-10-17T10:45:58.105Z,4.56
2023-10-17T10:48:27.040Z,4.61
2023-10-17T10:51:00.376Z,4.53
2023-10-17T10:53:41.948Z,4.47
2023-10-17T10:56:13.682Z,4.44
2023-10-17T10:58:50.404Z,4.27
2023-10-17T11:01:20.744Z,4.08
2023-10-17T11:03:50.997Z,3.94
2023-10-17T11:06:30.770Z,3.74
2023-10-17T11:08:59.240Z,3.61
2023-10-17T11:11:27.979Z,3.60
2023-10-17T11:13:57.261Z,3.28
2023-10-17T11:16:29.296Z,3.30
2023-10-17T11:18:58.180Z,3.18
2023-10-17T11:21:27.240Z,3.38
2023-10-17T11:24:02.467Z,3.04
2023-10-17T11:26:37.168Z,3.13
2023-10-17T11:29:06.137Z,3.06
2023-10-17T11:31:35.548Z,3.10
2023-10-17T11:34:15.454Z,3.20
2023-10-17T11:36:58.458Z,2.98
2023-10-17T11:39:28.756Z,3.14
2023-10-17T11:41:57.551Z,2.92
2023-10-17T11:44:29.672Z,3.16
2023-10-17T11:47:05.480Z,3.07
2023-10-17T11:49:37.904Z,3.17
2023-10-17T11:52:13.045Z,3.36
2023-10-17T11:55:15.142Z,3.34
2023-10-17T11:57:48.491Z,3.17
2023-10-17T12:00:20.621Z,3.41
2023-10-17T12:02:50.746Z,3.49
2023-10-17T12:05:21.712Z,3.57
2023-10-17T12:07:59.882Z,3.36
2023-10-17T12:10:34.952Z,3.53
2023-10-17T12:13:09.190Z,3.55
2023-10-17T12:15:37.879Z,3.62
2023-10-17T12:18:06.978Z,3.56
2023-10-17T12:20:35.676Z,3.50
2023-10-17T12:23:04.102Z,3.55
2023-10-17T12:25:35.553Z,3.24
2023-10-17T12:28:04.428Z,3.63
2023-10-17T12:30:38.658Z,3.71
2023-10-17T12:33:08.673Z,3.66
2023-10-17T12:35:39.673Z,3.65
2023-10-17T12:38:23.415Z,3.47
2023-10-17T12:40:51.509Z,3.61
2023-10-17T12:43:24.018Z,3.57
2023-10-17T12:45:54.756Z,3.37
2023-10-17T12:48:23.523Z,3.53
2023-10-17T12:50:52.217Z,3.54
2023-10-17T12:53:20.650Z,3.56
2023-10-17T12:55:49.298Z,3.43
2023-10-17T12:58:21.714Z,3.39
2023-10-17T13:00:51.290Z,3.63
2023-10-17T13:03:20.878Z,3.60
2023-10-17T13:05:49.812Z,3.61
2023-10-17T13:08:18.685Z,3.53
2023-10-17T13:10:47.440Z,3.44
2023-10-17T13:13:16.216Z,3.55
2023-10-17T13:15:46.272Z,3.68
2023-10-17T13:18:18.327Z,3.66
2023-10-17T13:21:04.290Z,3.65
2023-10-17T13:23:40.161Z,3.57
2023-10-17T13:26:22.525Z,3.58
2023-10-17T13:28:51.358Z,3.42
2023-10-17T13:31:21.583Z,3.57
2023-10-17T13:33:53.249Z,3.41
2023-10-17T13:36:22.862Z,3.55
2023-10-17T13:38:51.614Z,3.62
2023-10-17T13:41:20.457Z,3.53
2023-10-17T13:43:50.153Z,3.53
2023-10-17T13:46:21.405Z,3.37
2023-10-17T13:48:53.268Z,3.34
2023-10-17T13:51:22.117Z,3.35
2023-10-17T13:53:51.025Z,3.24
2023-10-17T13:56:24.201Z,3.41
2023-10-17T13:58:53.239Z,3.39
2023-10-17T14:01:34.900Z,3.38
2023-10-17T14:04:04.413Z,3.31
2023-10-17T14:06:47.644Z,3.36
2023-10-17T14:09:19.557Z,3.35
2023-10-17T14:11:49.015Z,3.22
2023-10-17T14:14:18.013Z,3.41
2023-10-17T14:16:46.868Z,3.48
2023-10-17T14:19:20.536Z,3.52
2023-10-17T14:22:09.375Z,3.64
2023-10-17T14:24:56.296Z,3.79
2023-10-17T14:27:27.614Z,3.86
2023-10-17T14:29:56.230Z,3.77
2023-10-17T14:32:26.274Z,3.97
2023-10-17T14:34:55.569Z,4.14
2023-10-17T14:37:25.991Z,4.21
2023-10-17T14:39:57.973Z,4.29
2023-10-17T14:42:30.568Z,4.33
2023-10-17T14:44:59.432Z,4.37
2023-10-17T14:47:28.933Z,4.45
2023-10-17T14:49:57.375Z,4.49
2023-10-17T14:52:26.817Z,4.56
2023-10-17T14:54:55.570Z,4.63
2023-10-17T14:57:24.324Z,4.66
2023-10-17T14:59:52.890Z,4.68
2023-10-17T15:02:21.698Z,4.73
2023-10-17T15:04:54.163Z,4.77
2023-10-17T15:07:22.749Z,4.84
2023-10-17T15:09:53.999Z,4.73
2023-10-17T15:12:22.758Z,4.98
2023-10-17T15:14:51.403Z,5.07
2023-10-17T15:17:20.789Z,5.00
2023-10-17T15:19:52.495Z,5.28
2023-10-17T15:22:21.163Z,5.20
2023-10-17T15:24:53.044Z,5.47
2023-10-17T15:27:21.745Z,5.42
2023-10-17T15:29:53.590Z,5.64
2023-10-17T15:32:22.223Z,5.53
2023-10-17T15:34:51.171Z,5.77
2023-10-17T15:37:20.204Z,5.66
2023-10-17T15:39:49.397Z,5.66
2023-10-17T15:42:18.178Z,6.01
2023-10-17T15:44:48.777Z,6.12
2023-10-17T15:47:18.463Z,6.18
2023-10-17T15:49:48.572Z,6.14
2023-10-17T15:52:17.293Z,6.33
2023-10-17T15:54:47.307Z,6.35
2023-10-17T15:57:17.406Z,6.39
2023-10-17T15:59:48.237Z,6.38
2023-10-17T16:02:16.509Z,6.25
2023-10-17T16:04:45.184Z,6.48
2023-10-17T16:07:14.238Z,6.76
2023-10-17T16:09:44.886Z,6.90
2023-10-17T16:12:13.552Z,7.00
2023-10-17T16:14:41.880Z,6.83
2023-10-17T16:17:10.608Z,6.79
2023-10-17T16:19:39.001Z,6.89
2023-10-17T16:22:10.024Z,6.93
2023-10-17T16:24:38.697Z,6.98
2023-10-17T16:27:07.177Z,7.20
2023-10-17T16:29:36.078Z,7.18
2023-10-17T16:32:05.039Z,7.45
2023-10-17T16:34:34.550Z,7.62
2023-10-17T16:37:04.118Z,7.82
2023-10-17T16:39:34.411Z,7.99
2023-10-17T16:42:03.115Z,8.16
2023-10-17T16:44:32.640Z,8.08
2023-10-17T16:47:02.796Z,8.20
2023-10-17T16:49:36.534Z,8.33
2023-10-17T16:52:05.037Z,8.39
2023-10-17T16:54:33.752Z,8.56
2023-10-17T16:57:02.397Z,8.59
2023-10-17T16:59:33.163Z,8.67
2023-10-17T17:02:01.843Z,8.61
2023-10-17T17:04:33.851Z,8.81
2023-10-17T17:07:02.344Z,8.90
2023-10-17T17:09:31.516Z,9.03
2023-10-17T17:11:59.866Z,9.14
2023-10-17T17:14:28.750Z,9.11
2023-10-17T17:16:59.570Z,9.13
2023-10-17T17:19:31.232Z,9.18
2023-10-17T17:22:01.083Z,9.30
2023-10-17T17:24:30.046Z,9.44
2023-10-17T17:26:58.888Z,9.35
2023-10-17T17:29:30.077Z,9.23
2023-10-17T17:31:59.093Z,9.18
2023-10-17T17:34:27.549Z,9.26
2023-10-17T17:36:56.206Z,9.41
2023-10-17T17:39:26.731Z,9.31
2023-10-17T17:41:55.502Z,9.43
2023-10-17T17:44:24.122Z,9.47
2023-10-17T17:46:52.863Z,9.56
2023-10-17T17:49:21.564Z,9.61
2023-10-17T17:51:50.243Z,9.42
2023-10-17T17:54:19.056Z,9.67
2023-10-17T17:56:49.891Z,9.81
2023-10-17T17:59:18.482Z,9.93
2023-10-17T18:01:47.099Z,9.98
2023-10-17T18:04:30.247Z,9.96
2023-10-17T18:07:02.701Z,9.88
2023-10-17T18:09:31.332Z,9.97
2023-10-17T18:12:00.483Z,9.80
2023-10-17T18:14:30.349Z,10.10
2023-10-17T18:16:59.012Z,9.76
2023-10-17T18:19:28.112Z,10.07
2023-10-17T18:21:56.540Z,9.92
2023-10-17T18:24:25.040Z,10.11
2023-10-17T18:26:53.699Z,10.13
2023-10-17T18:29:22.636Z,10.13
2023-10-17T18:31:52.295Z,10.06
2023-10-17T18:34:24.091Z,10.11
2023-10-17T18:36:53.116Z,10.28
2023-10-17T18:39:22.775Z,10.19
2023-10-17T18:41:52.664Z,10.13
2023-10-17T18:44:22.188Z,9.99
2023-10-17T18:46:51.738Z,10.12
2023-10-17T18:49:20.440Z,10.12
2023-10-17T18:51:49.266Z,10.10
2023-10-17T18:54:18.012Z,10.15
2023-10-17T18:56:46.911Z,10.26
2023-10-17T18:59:16.075Z,10.29
2023-10-17T19:01:46.375Z,10.56
2023-10-17T19:04:17.124Z,10.53
2023-10-17T19:06:46.085Z,10.69
2023-10-17T19:09:16.987Z,10.66
2023-10-17T19:11:45.151Z,10.44
2023-10-17T19:14:13.815Z,10.73
2023-10-17T19:16:42.461Z,10.72
2023-10-17T19:19:11.269Z,10.67
2023-10-17T19:21:39.942Z,10.84
2023-10-17T19:24:09.178Z,10.48
2023-10-17T19:26:37.891Z,10.42
2023-10-17T19:29:05.832Z,10.56
2023-10-17T19:31:34.100Z,10.49
2023-10-17T19:34:03.867Z,10.52
2023-10-17T19:36:32.447Z,10.44
2023-10-17T19:39:20.503Z,10.28
2023-10-17T19:41:53.821Z,10.47
2023-10-17T19:44:24.476Z,10.53
2023-10-17T19:46:52.884Z,10.57
2023-10-17T19:49:21.094Z,10.49
2023-10-17T19:51:50.743Z,10.31
2023-10-17T19:54:19.324Z,10.41
2023-10-17T19:56:47.959Z,10.43
2023-10-17T19:59:16.746Z,10.33
2023-10-17T20:01:47.492Z,10.22
2023-10-17T20:04:16.695Z,10.12
2023-10-17T20:06:44.777Z,10.11
2023-10-17T20:09:13.028Z,9.89
2023-10-17T20:11:41.604Z,10.00
2023-10-17T20:14:09.962Z,9.93
2023-10-17T20:16:38.137Z,9.71
2023-10-17T20:19:06.613Z,9.74
2023-10-17T20:21:35.282Z,9.83
2023-10-17T20:24:03.910Z,9.77
2023-10-17T20:26:32.542Z,9.79
2023-10-17T20:29:01.167Z,9.87
2023-10-17T20:31:29.754Z,9.91
2023-10-17T20:33:59.394Z,9.67
2023-10-17T20:36:28.113Z,9.90
2023-10-17T20:38:59.021Z,9.83
2023-10-17T20:41:30.752Z,9.77
2023-10-17T20:43:59.330Z,9.70
2023-10-17T20:46:32.298Z,9.84
2023-10-17T20:49:03.880Z,9.86
2023-10-17T20:51:32.712Z,9.77
2023-10-17T20:54:01.480Z,9.84
2023-10-17T20:56:38.736Z,9.74
2023-10-17T20:59:15.648Z,9.70
2023-10-17T21:01:44.030Z,9.63
2023-10-17T21:04:14.143Z,9.56
2023-10-17T21:06:42.835Z,9.59
2023-10-17T21:09:11.975Z,9.60
2023-10-17T21:11:41.610Z,9.64
2023-10-17T21:14:12.379Z,9.57
2023-10-17T21:16:41.331Z,9.62
2023-10-17T21:19:10.691Z,9.70
2023-10-17T21:21:42.205Z,9.82
2023-10-17T21:24:11.898Z,10.08
2023-10-17T21:26:42.325Z,10.24
2023-10-17T21:29:12.359Z,10.25
2023-10-17T21:31:40.870Z,10.35
2023-10-17T21:34:10.849Z,10.42
2023-10-17T21:36:39.699Z,10.48
2023-10-17T21:39:09.351Z,10.42
2023-10-17T21:41:39.007Z,10.56
2023-10-17T21:44:07.799Z,10.66
2023-10-17T21:46:36.537Z,10.74
2023-10-17T21:49:06.245Z,10.36
2023-10-17T21:51:35.510Z,10.58
2023-10-17T21:54:04.141Z,10.43
2023-10-17T21:56:32.773Z,10.47
2023-10-17T21:59:01.402Z,10.62
2023-10-17T22:01:29.716Z,10.61
2023-10-17T22:03:58.525Z,10.46
2023-10-17T22:06:28.178Z,10.63
2023-10-17T22:09:01.721Z,10.48
2023-10-17T22:11:30.977Z,10.50
2023-10-17T22:13:59.491Z,10.62
2023-10-17T22:16:28.441Z,10.47
2023-10-17T22:18:57.508Z,10.46
2023-10-17T22:21:26.010Z,10.61
2023-10-17T22:23:54.616Z,10.78
2023-10-17T22:26:24.610Z,10.98
2023-10-17T22:28:55.210Z,11.06
2023-10-17T22:31:24.234Z,10.99
2023-10-17T22:33:53.413Z,11.12
2023-10-17T22:36:21.820Z,11.21
2023-10-17T22:38:50.514Z,11.24
2023-10-17T22:41:19.347Z,10.98
2023-10-17T22:43:49.215Z,11.00
2023-10-17T22:46:17.798Z,10.71
2023-10-17T22:48:47.712Z,10.94
2023-10-17T22:51:16.387Z,10.91
2023-10-17T22:53:46.532Z,10.99
2023-10-17T22:56:15.173Z,10.95
2023-10-17T22:58:43.873Z,10.97
2023-10-17T23:01:14.754Z,10.99
2023-10-17T23:03:43.810Z,10.74
2023-10-17T23:06:12.732Z,10.57
2023-10-17T23:08:43.051Z,10.50
2023-10-17T23:11:12.666Z,10.29
2023-10-17T23:13:41.336Z,10.55
2023-10-17T23:16:13.640Z,10.57
2023-10-17T23:18:44.049Z,10.56
2023-10-17T23:21:13.889Z,10.56
2023-10-17T23:23:42.631Z,10.47
2023-10-17T23:26:11.218Z,10.42
2023-10-17T23:28:39.916Z,10.32
2023-10-17T23:31:12.056Z,10.18
2023-10-17T23:33:43.330Z,10.46
2023-10-17T23:36:12.181Z,10.33
2023-10-17T23:38:40.898Z,10.32
2023-10-17T23:41:09.595Z,10.34
2023-10-17T23:43:38.548Z,10.34
2023-10-17T23:46:07.292Z,10.32
2023-10-17T23:48:36.433Z,10.26
2023-10-17T23:51:05.377Z,10.20
2023-10-17T23:53:34.847Z,9.91
2023-10-17T23:56:16.163Z,9.60
2023-10-17T23:58:45.050Z,9.87
